Galileo — SX2040 — position and weather

sailwx.info

Track history (hours):
 
Tides and Currents Weather Stations Pressure Air Temp Water Temp Dewpoint Dewpoint Depression Visibility Wind Speed Wind Dir Waves Ship Positions

Galileo

Last reported at 2018-Jun-22 23:28 UTC. Time now 2018-Jun-23 09:52 UTC.
Position N 37°29' E 023°30'.

Length 50 m; draft 3 m.

Type: Passenger vessel. MMSI: 239299000.

Date/timePositionNaut miles runAvg speedWind from/ knotsBaromVisibWave heightAir tempDewpointWater temp
2018-Jun-22 23:28N 37°29' E 023°30'3 6.0
2018-Jun-22 22:57N 37°30' E 023°27'0 0.0
2018-Jun-22 17:40N 37°30' E 023°27'0 0.0
2018-Jun-22 17:22N 37°30' E 023°27'0 0.0
2018-Jun-22 17:00N 37°30' E 023°27'2 3.3
2018-Jun-22 16:23N 37°32' E 023°25'5 9.3
2018-Jun-22 15:51N 37°36' E 023°29'3 9.3
2018-Jun-22 15:30N 37°39' E 023°31'4 9.2
2018-Jun-22 15:00N 37°43' E 023°33'5 9.2
2018-Jun-22 14:30N 37°47' E 023°35'4 8.9
2018-Jun-22 14:00N 37°51' E 023°37'4 9.0
2018-Jun-22 13:30N 37°55' E 023°39'1 1.0
2018-Jun-22 12:52N 37°56' E 023°39'0 0.0
2018-Jun-22 12:28N 37°56' E 023°39'0 0.0
2018-Jun-22 11:58N 37°56' E 023°39'0 0.0
2018-Jun-22 11:28N 37°56' E 023°39'0 0.0
2018-Jun-22 10:52N 37°56' E 023°39'0 0.0
2018-Jun-22 10:28N 37°56' E 023°39'0 0.0
2018-Jun-22 09:55N 37°56' E 023°39'0 0.0
2018-Jun-22 09:25N 37°56' E 023°39'0 0.0
2018-Jun-22 08:58N 37°56' E 023°39'0 0.0
2018-Jun-22 08:28N 37°56' E 023°39'0 0.0
2018-Jun-22 07:58N 37°56' E 023°39'0 0.0
2018-Jun-22 07:28N 37°56' E 023°39'0 0.0
2018-Jun-22 06:58N 37°56' E 023°39'0 0.0
2018-Jun-22 06:28N 37°56' E 023°39'0 0.0
2018-Jun-22 05:58N 37°56' E 023°39'0 0.0
2018-Jun-22 05:25N 37°56' E 023°39'0 0.0
2018-Jun-22 04:58N 37°56' E 023°39'0 0.0
2018-Jun-22 04:25N 37°56' E 023°39'0 0.0
2018-Jun-22 03:58N 37°56' E 023°39'0 0.0
2018-Jun-22 03:28N 37°56' E 023°39'0 0.0
2018-Jun-22 02:58N 37°56' E 023°39'0 0.0
2018-Jun-22 02:28N 37°56' E 023°39'0 0.0
2018-Jun-22 01:58N 37°56' E 023°39'0 0.0
2018-Jun-22 01:25N 37°56' E 023°39'0 0.0
2018-Jun-22 00:58N 37°56' E 023°39'0 0.0
2018-Jun-22 00:28N 37°56' E 023°39'0 0.0
2018-Jun-21 23:58N 37°56' E 023°39'0 0.0
2018-Jun-21 23:28N 37°56' E 023°39'0 0.0
2018-Jun-21 22:58N 37°56' E 023°39'0 0.0
2018-Jun-21 22:28N 37°56' E 023°39'0 0.0
2018-Jun-21 21:58N 37°56' E 023°39'0 0.0
2018-Jun-21 21:25N 37°56' E 023°39'0 0.0
2018-Jun-21 20:58N 37°56' E 023°39'0 0.0
2018-Jun-21 20:28N 37°56' E 023°39'0 0.0
2018-Jun-21 19:58N 37°56' E 023°39'0 0.0
2018-Jun-21 19:28N 37°56' E 023°39'0 0.0
2018-Jun-21 18:58N 37°56' E 023°39'0 0.0
2018-Jun-21 18:28N 37°56' E 023°39'0 0.0
2018-Jun-21 17:55N 37°56' E 023°39'0 0.0
2018-Jun-21 17:28N 37°56' E 023°39'0 0.0
2018-Jun-21 16:58N 37°56' E 023°39'0 0.0
2018-Jun-21 16:28N 37°56' E 023°39'0 0.0
2018-Jun-21 15:58N 37°56' E 023°39'0 0.0
2018-Jun-21 15:30N 37°56' E 023°39'3 5.3
2018-Jun-21 15:00N 37°54' E 023°41'510.0
2018-Jun-21 14:30N 37°49' E 023°44'51 5.1
2018-Jun-21 04:30N 37°31' E 024°44'5 9.8
2018-Jun-21 04:00N 37°31' E 024°50'9 0.5
2018-Jun-20 08:21N 37°25' E 024°58'0 0.3
2018-Jun-20 08:00N 37°25' E 024°58'0 0.0
2018-Jun-20 07:30N 37°25' E 024°58'0 0.0
2018-Jun-20 07:00N 37°25' E 024°58'0 0.0
2018-Jun-20 06:30N 37°25' E 024°58'7 7.7
2018-Jun-20 05:36N 37°26' E 025°07'1 9.4
2018-Jun-20 05:29N 37°26' E 025°08'5 9.9
2018-Jun-20 05:00N 37°27' E 025°14'4 0.4
2018-Jun-19 17:56N 37°28' E 025°20'0 0.0
2018-Jun-19 14:41N 37°28' E 025°20'0 0.0
2018-Jun-19 08:20N 37°28' E 025°20'0 0.0
2018-Jun-19 06:14N 37°28' E 025°20'0 0.0
2018-Jun-19 05:53N 37°28' E 025°20'0 0.0
2018-Jun-19 05:30N 37°28' E 025°20'0 0.2
2018-Jun-19 05:01N 37°28' E 025°20'3 5.1
2018-Jun-19 04:30N 37°26' E 025°17'5 9.5
2018-Jun-19 04:01N 37°21' E 025°16'5 9.6
2018-Jun-19 03:30N 37°17' E 025°14'10 9.5
2018-Jun-19 02:30N 37°08' E 025°08'3 0.2
2018-Jun-18 12:32N 37°05' E 025°08'1 9.7
2018-Jun-18 12:27N 37°05' E 025°07'4 9.4
2018-Jun-18 12:00N 37°03' E 025°03'78 1.8
2018-Jun-16 17:31N 37°29' E 023°30'1 9.8
2018-Jun-16 17:26N 37°29' E 023°30'2 0.4
2018-Jun-16 11:54N 37°30' E 023°27'0 0.1
2018-Jun-16 11:12N 37°30' E 023°27'1 5.5
2018-Jun-16 10:58N 37°31' E 023°26'0 0.1
2018-Jun-16 05:42N 37°31' E 023°25'3 8.2
2018-Jun-16 05:20N 37°34' E 023°25'4 9.1
2018-Jun-16 04:51N 37°38' E 023°25'6 9.4
2018-Jun-16 04:13N 37°44' E 023°25'1 2.7
2018-Jun-16 04:00N 37°45' E 023°26'0 0.0
2018-Jun-16 02:02N 37°45' E 023°26'0 0.0
2018-Jun-16 01:38N 37°45' E 023°26'0 0.0
2018-Jun-16 01:26N 37°45' E 023°26'0 0.0
2018-Jun-16 00:56N 37°45' E 023°26'0 0.0
2018-Jun-16 00:26N 37°45' E 023°26'0 0.0
2018-Jun-15 23:56N 37°45' E 023°26'0 0.0
2018-Jun-15 23:26N 37°45' E 023°26'0 0.0
2018-Jun-15 22:44N 37°45' E 023°26'0 0.0
2018-Jun-15 22:20N 37°45' E 023°26'0 0.0
2018-Jun-15 21:02N 37°45' E 023°26'0 0.0
2018-Jun-15 20:56N 37°45' E 023°26'0 0.0
2018-Jun-15 20:20N 37°45' E 023°26'0 0.0
2018-Jun-15 19:50N 37°45' E 023°26'0 0.0
2018-Jun-15 19:26N 37°45' E 023°26'0 0.0
2018-Jun-15 18:44N 37°45' E 023°26'0 0.0
2018-Jun-15 18:14N 37°45' E 023°26'0 0.0
2018-Jun-15 17:50N 37°45' E 023°26'0 0.0
2018-Jun-15 17:26N 37°45' E 023°26'0 0.0
2018-Jun-15 16:59N 37°45' E 023°26'0 0.0
2018-Jun-15 16:30N 37°45' E 023°26'0 0.1
2018-Jun-15 16:00N 37°45' E 023°25'2 3.8
2018-Jun-15 15:30N 37°47' E 023°26'5 9.0
2018-Jun-15 15:00N 37°49' E 023°30'4 9.0
2018-Jun-15 14:30N 37°52' E 023°35'4 8.7
2018-Jun-15 14:00N 37°55' E 023°39'1 1.5
2018-Jun-15 13:28N 37°56' E 023°39'0 0.0
2018-Jun-15 12:58N 37°56' E 023°39'0 0.0
2018-Jun-15 12:28N 37°56' E 023°39'0 0.0
2018-Jun-15 11:58N 37°56' E 023°39'0 0.0
2018-Jun-15 11:28N 37°56' E 023°39'0 0.0
2018-Jun-15 10:58N 37°56' E 023°39'0 0.0
2018-Jun-15 10:28N 37°56' E 023°39'0 0.0
2018-Jun-15 09:58N 37°56' E 023°39'0 0.0
2018-Jun-15 09:28N 37°56' E 023°39'0 0.0
2018-Jun-15 08:58N 37°56' E 023°39'0 0.0
2018-Jun-15 08:28N 37°56' E 023°39'0 0.0
2018-Jun-15 07:55N 37°56' E 023°39'0 0.0
2018-Jun-15 07:28N 37°56' E 023°39'0 0.0
2018-Jun-15 06:58N 37°56' E 023°39'0 0.0
2018-Jun-15 06:25N 37°56' E 023°39'0 0.0
2018-Jun-15 05:58N 37°56' E 023°39'0 0.0
2018-Jun-15 05:25N 37°56' E 023°39'0 0.0
2018-Jun-15 04:58N 37°56' E 023°39'0 0.0
2018-Jun-15 04:28N 37°56' E 023°39'0 0.0
2018-Jun-15 03:58N 37°56' E 023°39'0 0.0
2018-Jun-15 03:25N 37°56' E 023°39'0 0.0
2018-Jun-15 02:58N 37°56' E 023°39'0 0.0
2018-Jun-15 02:28N 37°56' E 023°39'0 0.0
2018-Jun-15 01:58N 37°56' E 023°39'0 0.0
2018-Jun-15 01:28N 37°56' E 023°39'0 0.0
2018-Jun-15 00:55N 37°56' E 023°39'0 0.0
2018-Jun-15 00:28N 37°56' E 023°39'0 0.0
2018-Jun-14 23:58N 37°56' E 023°39'0 0.0
2018-Jun-14 23:28N 37°56' E 023°39'0 0.0
2018-Jun-14 22:58N 37°56' E 023°39'0 0.0
2018-Jun-14 22:28N 37°56' E 023°39'0 0.0
2018-Jun-14 21:58N 37°56' E 023°39'0 0.0
2018-Jun-14 21:28N 37°56' E 023°39'0 0.0
2018-Jun-14 20:58N 37°56' E 023°39'0 0.0
2018-Jun-14 20:28N 37°56' E 023°39'0 0.0
2018-Jun-14 19:58N 37°56' E 023°39'0 0.0
2018-Jun-14 19:30N 37°56' E 023°39'0 0.0
2018-Jun-14 19:00N 37°56' E 023°39'0 0.0
2018-Jun-14 18:30N 37°56' E 023°39'0 0.0
2018-Jun-14 18:00N 37°56' E 023°39'0 0.0
2018-Jun-14 17:30N 37°56' E 023°39'0 0.0
2018-Jun-14 17:00N 37°56' E 023°39'0 0.0
2018-Jun-14 16:30N 37°56' E 023°39'0 0.0
2018-Jun-14 16:00N 37°56' E 023°39'0 0.4
2018-Jun-14 15:30N 37°56' E 023°39'3 5.3
2018-Jun-14 15:01N 37°54' E 023°41'510.0
2018-Jun-14 14:31N 37°49' E 023°44'51 5.0
2018-Jun-14 04:27N 37°31' E 024°44'12 8.2
2018-Jun-14 03:02N 37°27' E 024°58'010.0
2018-Jun-14 02:59N 37°27' E 024°58'2 0.1
2018-Jun-13 08:24N 37°25' E 024°58'0 0.1
2018-Jun-13 07:45N 37°25' E 024°58'0 0.0
2018-Jun-13 07:13N 37°25' E 024°58'0 0.0
2018-Jun-13 07:00N 37°25' E 024°58'8 6.0
2018-Jun-13 05:37N 37°26' E 025°09'1 9.2
2018-Jun-13 05:29N 37°27' E 025°10'4 9.2
2018-Jun-13 05:00N 37°27' E 025°16'3 6.4
2018-Jun-13 04:30N 37°28' E 025°20'0 0.0
2018-Jun-13 01:26N 37°28' E 025°20'  
Track history (hours):
 
Tides and Currents Weather Stations Pressure Air Temp Water Temp Dewpoint Dewpoint Depression Visibility Wind Speed Wind Dir Waves Ship Positions

Galileo

Last reported at 2018-Jun-22 23:28 UTC. Time now 2018-Jun-23 09:52 UTC.
Position N 37°29' E 023°30'.

Length 50 m; draft 3 m.

Type: Passenger vessel. MMSI: 239299000.

Date/timePositionNaut miles runAvg speedWind from/ knotsBaromVisibWave heightAir tempDewpointWater temp
2018-Jun-22 23:28N 37°29' E 023°30'3 6.0
2018-Jun-22 22:57N 37°30' E 023°27'0 0.0
2018-Jun-22 17:40N 37°30' E 023°27'0 0.0
2018-Jun-22 17:22N 37°30' E 023°27'0 0.0
2018-Jun-22 17:00N 37°30' E 023°27'2 3.3
2018-Jun-22 16:23N 37°32' E 023°25'5 9.3
2018-Jun-22 15:51N 37°36' E 023°29'3 9.3
2018-Jun-22 15:30N 37°39' E 023°31'4 9.2
2018-Jun-22 15:00N 37°43' E 023°33'5 9.2
2018-Jun-22 14:30N 37°47' E 023°35'4 8.9
2018-Jun-22 14:00N 37°51' E 023°37'4 9.0
2018-Jun-22 13:30N 37°55' E 023°39'1 1.0
2018-Jun-22 12:52N 37°56' E 023°39'0 0.0
2018-Jun-22 12:28N 37°56' E 023°39'0 0.0
2018-Jun-22 11:58N 37°56' E 023°39'0 0.0
2018-Jun-22 11:28N 37°56' E 023°39'0 0.0
2018-Jun-22 10:52N 37°56' E 023°39'0 0.0
2018-Jun-22 10:28N 37°56' E 023°39'0 0.0
2018-Jun-22 09:55N 37°56' E 023°39'0 0.0
2018-Jun-22 09:25N 37°56' E 023°39'0 0.0
2018-Jun-22 08:58N 37°56' E 023°39'0 0.0
2018-Jun-22 08:28N 37°56' E 023°39'0 0.0
2018-Jun-22 07:58N 37°56' E 023°39'0 0.0
2018-Jun-22 07:28N 37°56' E 023°39'0 0.0
2018-Jun-22 06:58N 37°56' E 023°39'0 0.0
2018-Jun-22 06:28N 37°56' E 023°39'0 0.0
2018-Jun-22 05:58N 37°56' E 023°39'0 0.0
2018-Jun-22 05:25N 37°56' E 023°39'0 0.0
2018-Jun-22 04:58N 37°56' E 023°39'0 0.0
2018-Jun-22 04:25N 37°56' E 023°39'0 0.0
2018-Jun-22 03:58N 37°56' E 023°39'0 0.0
2018-Jun-22 03:28N 37°56' E 023°39'0 0.0
2018-Jun-22 02:58N 37°56' E 023°39'0 0.0
2018-Jun-22 02:28N 37°56' E 023°39'0 0.0
2018-Jun-22 01:58N 37°56' E 023°39'0 0.0
2018-Jun-22 01:25N 37°56' E 023°39'0 0.0
2018-Jun-22 00:58N 37°56' E 023°39'0 0.0
2018-Jun-22 00:28N 37°56' E 023°39'0 0.0
2018-Jun-21 23:58N 37°56' E 023°39'0 0.0
2018-Jun-21 23:28N 37°56' E 023°39'0 0.0
2018-Jun-21 22:58N 37°56' E 023°39'0 0.0
2018-Jun-21 22:28N 37°56' E 023°39'0 0.0
2018-Jun-21 21:58N 37°56' E 023°39'0 0.0
2018-Jun-21 21:25N 37°56' E 023°39'0 0.0
2018-Jun-21 20:58N 37°56' E 023°39'0 0.0
2018-Jun-21 20:28N 37°56' E 023°39'0 0.0
2018-Jun-21 19:58N 37°56' E 023°39'0 0.0
2018-Jun-21 19:28N 37°56' E 023°39'0 0.0
2018-Jun-21 18:58N 37°56' E 023°39'0 0.0
2018-Jun-21 18:28N 37°56' E 023°39'0 0.0
2018-Jun-21 17:55N 37°56' E 023°39'0 0.0
2018-Jun-21 17:28N 37°56' E 023°39'0 0.0
2018-Jun-21 16:58N 37°56' E 023°39'0 0.0
2018-Jun-21 16:28N 37°56' E 023°39'0 0.0
2018-Jun-21 15:58N 37°56' E 023°39'0 0.0
2018-Jun-21 15:30N 37°56' E 023°39'3 5.3
2018-Jun-21 15:00N 37°54' E 023°41'510.0
2018-Jun-21 14:30N 37°49' E 023°44'51 5.1
2018-Jun-21 04:30N 37°31' E 024°44'5 9.8
2018-Jun-21 04:00N 37°31' E 024°50'9 0.5
2018-Jun-20 08:21N 37°25' E 024°58'0 0.3
2018-Jun-20 08:00N 37°25' E 024°58'0 0.0
2018-Jun-20 07:30N 37°25' E 024°58'0 0.0
2018-Jun-20 07:00N 37°25' E 024°58'0 0.0
2018-Jun-20 06:30N 37°25' E 024°58'7 7.7
2018-Jun-20 05:36N 37°26' E 025°07'1 9.4
2018-Jun-20 05:29N 37°26' E 025°08'5 9.9
2018-Jun-20 05:00N 37°27' E 025°14'4 0.4
2018-Jun-19 17:56N 37°28' E 025°20'0 0.0
2018-Jun-19 14:41N 37°28' E 025°20'0 0.0
2018-Jun-19 08:20N 37°28' E 025°20'0 0.0
2018-Jun-19 06:14N 37°28' E 025°20'0 0.0
2018-Jun-19 05:53N 37°28' E 025°20'0 0.0
2018-Jun-19 05:30N 37°28' E 025°20'0 0.2
2018-Jun-19 05:01N 37°28' E 025°20'3 5.1
2018-Jun-19 04:30N 37°26' E 025°17'5 9.5
2018-Jun-19 04:01N 37°21' E 025°16'5 9.6
2018-Jun-19 03:30N 37°17' E 025°14'10 9.5
2018-Jun-19 02:30N 37°08' E 025°08'3 0.2
2018-Jun-18 12:32N 37°05' E 025°08'1 9.7
2018-Jun-18 12:27N 37°05' E 025°07'4 9.4
2018-Jun-18 12:00N 37°03' E 025°03'78 1.8
2018-Jun-16 17:31N 37°29' E 023°30'1 9.8
2018-Jun-16 17:26N 37°29' E 023°30'2 0.4
2018-Jun-16 11:54N 37°30' E 023°27'0 0.1
2018-Jun-16 11:12N 37°30' E 023°27'1 5.5
2018-Jun-16 10:58N 37°31' E 023°26'0 0.1
2018-Jun-16 05:42N 37°31' E 023°25'3 8.2
2018-Jun-16 05:20N 37°34' E 023°25'4 9.1
2018-Jun-16 04:51N 37°38' E 023°25'6 9.4
2018-Jun-16 04:13N 37°44' E 023°25'1 2.7
2018-Jun-16 04:00N 37°45' E 023°26'0 0.0
2018-Jun-16 02:02N 37°45' E 023°26'0 0.0
2018-Jun-16 01:38N 37°45' E 023°26'0 0.0
2018-Jun-16 01:26N 37°45' E 023°26'0 0.0
2018-Jun-16 00:56N 37°45' E 023°26'0 0.0
2018-Jun-16 00:26N 37°45' E 023°26'0 0.0
2018-Jun-15 23:56N 37°45' E 023°26'0 0.0
2018-Jun-15 23:26N 37°45' E 023°26'0 0.0
2018-Jun-15 22:44N 37°45' E 023°26'0 0.0
2018-Jun-15 22:20N 37°45' E 023°26'0 0.0
2018-Jun-15 21:02N 37°45' E 023°26'0 0.0
2018-Jun-15 20:56N 37°45' E 023°26'0 0.0
2018-Jun-15 20:20N 37°45' E 023°26'0 0.0
2018-Jun-15 19:50N 37°45' E 023°26'0 0.0
2018-Jun-15 19:26N 37°45' E 023°26'0 0.0
2018-Jun-15 18:44N 37°45' E 023°26'0 0.0
2018-Jun-15 18:14N 37°45' E 023°26'0 0.0
2018-Jun-15 17:50N 37°45' E 023°26'0 0.0
2018-Jun-15 17:26N 37°45' E 023°26'0 0.0
2018-Jun-15 16:59N 37°45' E 023°26'0 0.0
2018-Jun-15 16:30N 37°45' E 023°26'0 0.1
2018-Jun-15 16:00N 37°45' E 023°25'2 3.8
2018-Jun-15 15:30N 37°47' E 023°26'5 9.0
2018-Jun-15 15:00N 37°49' E 023°30'4 9.0
2018-Jun-15 14:30N 37°52' E 023°35'4 8.7
2018-Jun-15 14:00N 37°55' E 023°39'1 1.5
2018-Jun-15 13:28N 37°56' E 023°39'0 0.0
2018-Jun-15 12:58N 37°56' E 023°39'0 0.0
2018-Jun-15 12:28N 37°56' E 023°39'0 0.0
2018-Jun-15 11:58N 37°56' E 023°39'0 0.0
2018-Jun-15 11:28N 37°56' E 023°39'0 0.0
2018-Jun-15 10:58N 37°56' E 023°39'0 0.0
2018-Jun-15 10:28N 37°56' E 023°39'0 0.0
2018-Jun-15 09:58N 37°56' E 023°39'0 0.0
2018-Jun-15 09:28N 37°56' E 023°39'0 0.0
2018-Jun-15 08:58N 37°56' E 023°39'0 0.0
2018-Jun-15 08:28N 37°56' E 023°39'0 0.0
2018-Jun-15 07:55N 37°56' E 023°39'0 0.0
2018-Jun-15 07:28N 37°56' E 023°39'0 0.0
2018-Jun-15 06:58N 37°56' E 023°39'0 0.0
2018-Jun-15 06:25N 37°56' E 023°39'0 0.0
2018-Jun-15 05:58N 37°56' E 023°39'0 0.0
2018-Jun-15 05:25N 37°56' E 023°39'0 0.0
2018-Jun-15 04:58N 37°56' E 023°39'0 0.0
2018-Jun-15 04:28N 37°56' E 023°39'0 0.0
2018-Jun-15 03:58N 37°56' E 023°39'0 0.0
2018-Jun-15 03:25N 37°56' E 023°39'0 0.0
2018-Jun-15 02:58N 37°56' E 023°39'0 0.0
2018-Jun-15 02:28N 37°56' E 023°39'0 0.0
2018-Jun-15 01:58N 37°56' E 023°39'0 0.0
2018-Jun-15 01:28N 37°56' E 023°39'0 0.0
2018-Jun-15 00:55N 37°56' E 023°39'0 0.0
2018-Jun-15 00:28N 37°56' E 023°39'0 0.0
2018-Jun-14 23:58N 37°56' E 023°39'0 0.0
2018-Jun-14 23:28N 37°56' E 023°39'0 0.0
2018-Jun-14 22:58N 37°56' E 023°39'0 0.0
2018-Jun-14 22:28N 37°56' E 023°39'0 0.0
2018-Jun-14 21:58N 37°56' E 023°39'0 0.0
2018-Jun-14 21:28N 37°56' E 023°39'0 0.0
2018-Jun-14 20:58N 37°56' E 023°39'0 0.0
2018-Jun-14 20:28N 37°56' E 023°39'0 0.0
2018-Jun-14 19:58N 37°56' E 023°39'0 0.0
2018-Jun-14 19:30N 37°56' E 023°39'0 0.0
2018-Jun-14 19:00N 37°56' E 023°39'0 0.0
2018-Jun-14 18:30N 37°56' E 023°39'0 0.0
2018-Jun-14 18:00N 37°56' E 023°39'0 0.0
2018-Jun-14 17:30N 37°56' E 023°39'0 0.0
2018-Jun-14 17:00N 37°56' E 023°39'0 0.0
2018-Jun-14 16:30N 37°56' E 023°39'0 0.0
2018-Jun-14 16:00N 37°56' E 023°39'0 0.4
2018-Jun-14 15:30N 37°56' E 023°39'3 5.3
2018-Jun-14 15:01N 37°54' E 023°41'510.0
2018-Jun-14 14:31N 37°49' E 023°44'51 5.0
2018-Jun-14 04:27N 37°31' E 024°44'12 8.2
2018-Jun-14 03:02N 37°27' E 024°58'010.0
2018-Jun-14 02:59N 37°27' E 024°58'2 0.1
2018-Jun-13 08:24N 37°25' E 024°58'0 0.1
2018-Jun-13 07:45N 37°25' E 024°58'0 0.0
2018-Jun-13 07:13N 37°25' E 024°58'0 0.0
2018-Jun-13 07:00N 37°25' E 024°58'8 6.0
2018-Jun-13 05:37N 37°26' E 025°09'1 9.2
2018-Jun-13 05:29N 37°27' E 025°10'4 9.2
2018-Jun-13 05:00N 37°27' E 025°16'3 6.4
2018-Jun-13 04:30N 37°28' E 025°20'0 0.0
2018-Jun-13 01:26N 37°28' E 025°20'  

Dump ship's entire track history